createdAt,value
2022-08-31T00:00:36.392Z,2.80
2022-08-31T00:03:24.392Z,2.80
2022-08-31T00:06:00.980Z,2.50
2022-08-31T00:08:30.533Z,2.70
2022-08-31T00:10:59.011Z,2.80
2022-08-31T00:13:28.048Z,2.80
2022-08-31T00:15:57.480Z,2.60
2022-08-31T00:18:25.172Z,2.50
2022-08-31T00:20:52.753Z,2.50
2022-08-31T00:23:20.485Z,2.80
2022-08-31T00:25:49.126Z,2.50
2022-08-31T00:28:18.004Z,2.70
2022-08-31T00:30:46.649Z,2.90
2022-08-31T00:33:14.469Z,3.20
2022-08-31T00:35:43.079Z,2.50
2022-08-31T00:38:12.305Z,2.30
2022-08-31T00:40:44.869Z,2.40
2022-08-31T00:43:37.096Z,2.70
2022-08-31T00:46:05.837Z,2.70
2022-08-31T00:48:35.646Z,2.50
2022-08-31T00:51:03.586Z,2.10
2022-08-31T00:53:33.811Z,2.60
2022-08-31T00:56:02.030Z,2.60
2022-08-31T00:58:29.885Z,2.60
2022-08-31T01:00:59.781Z,2.50
2022-08-31T01:03:27.606Z,2.50
2022-08-31T01:05:55.057Z,2.90
2022-08-31T01:08:27.019Z,2.20
2022-08-31T01:10:59.984Z,2.40
2022-08-31T01:13:28.309Z,2.60
2022-08-31T01:16:02.701Z,2.30
2022-08-31T01:18:33.630Z,2.50
2022-08-31T01:21:24.939Z,2.40
2022-08-31T01:26:26.656Z,2.60
2022-08-31T01:28:58.497Z,2.80
2022-08-31T01:31:33.196Z,2.60
2022-08-31T01:34:02.237Z,2.90
2022-08-31T01:36:31.273Z,2.40
2022-08-31T01:38:58.740Z,2.30
2022-08-31T01:41:26.276Z,2.70
2022-08-31T01:43:54.701Z,2.40
2022-08-31T01:46:22.284Z,2.20
2022-08-31T01:48:50.119Z,2.30
2022-08-31T01:51:20.323Z,2.30
2022-08-31T01:53:51.110Z,2.40
2022-08-31T01:56:45.302Z,2.20
2022-08-31T01:59:14.912Z,2.60
2022-08-31T02:01:46.310Z,2.10
2022-08-31T02:04:16.276Z,2.30
2022-08-31T02:06:50.480Z,2.80
2022-08-31T02:09:18.632Z,2.40
2022-08-31T02:11:46.113Z,2.80
2022-08-31T02:14:14.417Z,2.90
2022-08-31T02:16:42.051Z,2.50
2022-08-31T02:19:09.768Z,2.30
2022-08-31T02:21:37.792Z,2.30
2022-08-31T02:24:06.513Z,2.80
2022-08-31T02:26:34.269Z,2.40
2022-08-31T02:29:02.284Z,2.40
2022-08-31T02:31:29.935Z,3.00
2022-08-31T02:33:57.499Z,2.40
2022-08-31T02:36:25.901Z,2.50
2022-08-31T02:38:56.048Z,2.80
2022-08-31T02:41:23.469Z,2.70
2022-08-31T02:43:51.026Z,2.10
2022-08-31T02:46:19.526Z,2.60
2022-08-31T02:48:47.132Z,2.20
2022-08-31T02:51:14.667Z,2.60
2022-08-31T02:53:42.131Z,2.40
2022-08-31T02:56:09.767Z,2.30
2022-08-31T02:58:37.492Z,2.70
2022-08-31T03:01:04.980Z,2.60
2022-08-31T03:03:34.831Z,2.60
2022-08-31T03:06:03.042Z,2.40
2022-08-31T03:08:31.093Z,2.90
2022-08-31T03:10:58.780Z,2.70
2022-08-31T03:13:26.454Z,2.80
2022-08-31T03:15:53.983Z,2.90
2022-08-31T03:18:21.876Z,2.70
2022-08-31T03:20:49.407Z,2.40
2022-08-31T03:23:16.973Z,2.60
2022-08-31T03:25:44.584Z,2.40
2022-08-31T03:28:12.198Z,2.30
2022-08-31T03:30:40.832Z,2.50
2022-08-31T03:33:09.225Z,2.60
2022-08-31T03:35:37.558Z,2.80
2022-08-31T03:38:05.520Z,2.70
2022-08-31T03:40:33.057Z,3.20
2022-08-31T03:43:00.666Z,2.50
2022-08-31T03:45:28.182Z,2.50
2022-08-31T03:47:55.627Z,2.60
2022-08-31T03:50:23.114Z,2.40
2022-08-31T03:52:50.585Z,2.50
2022-08-31T03:55:18.286Z,2.50
2022-08-31T03:57:45.698Z,2.70
2022-08-31T04:00:13.952Z,2.40
2022-08-31T04:02:41.902Z,2.60
2022-08-31T04:05:10.059Z,2.80
2022-08-31T04:07:42.546Z,2.60
2022-08-31T04:10:14.983Z,2.60
2022-08-31T04:12:42.469Z,2.70
2022-08-31T04:15:12.018Z,2.40
2022-08-31T04:17:39.544Z,2.80
2022-08-31T04:20:07.945Z,2.50
2022-08-31T04:22:35.423Z,2.30
2022-08-31T04:25:03.377Z,2.70
2022-08-31T04:27:30.924Z,2.90
2022-08-31T04:29:58.376Z,2.60
2022-08-31T04:32:25.862Z,2.50
2022-08-31T04:34:56.603Z,2.60
2022-08-31T04:37:24.196Z,2.60
2022-08-31T04:39:52.286Z,2.30
2022-08-31T04:42:20.086Z,2.60
2022-08-31T04:44:47.572Z,3.00
2022-08-31T04:47:14.984Z,2.70
2022-08-31T04:49:42.427Z,2.90
2022-08-31T04:52:09.884Z,3.00
2022-08-31T04:54:37.720Z,2.80
2022-08-31T04:57:05.323Z,3.00
2022-08-31T04:59:32.784Z,2.70
2022-08-31T05:02:00.715Z,2.70
2022-08-31T05:04:29.210Z,2.60
2022-08-31T05:06:59.980Z,3.00
2022-08-31T05:09:27.576Z,2.40
2022-08-31T05:11:55.648Z,2.70
2022-08-31T05:14:24.897Z,2.60
2022-08-31T05:16:52.982Z,3.20
2022-08-31T05:19:20.988Z,2.80
2022-08-31T05:21:48.949Z,2.90
2022-08-31T05:24:21.668Z,2.70
2022-08-31T05:26:53.722Z,3.10
2022-08-31T05:29:25.401Z,3.00
2022-08-31T05:31:53.102Z,2.90
2022-08-31T05:34:22.005Z,2.70
2022-08-31T05:36:53.969Z,3.00
2022-08-31T05:39:22.184Z,2.60
2022-08-31T05:41:50.239Z,3.00
2022-08-31T05:44:20.661Z,3.30
2022-08-31T05:46:54.698Z,3.00
2022-08-31T05:49:28.696Z,2.50
2022-08-31T05:51:57.215Z,2.70
2022-08-31T05:54:24.861Z,2.80
2022-08-31T05:56:52.300Z,2.70
2022-08-31T05:59:19.930Z,2.80
2022-08-31T06:01:47.505Z,2.80
2022-08-31T06:04:15.037Z,3.10
2022-08-31T06:06:42.541Z,2.90
2022-08-31T06:09:10.003Z,2.60
2022-08-31T06:11:42.235Z,2.80
2022-08-31T06:14:11.493Z,3.60
2022-08-31T06:16:39.750Z,3.70
2022-08-31T06:19:07.453Z,3.30
2022-08-31T06:21:49.666Z,3.10
2022-08-31T06:24:19.605Z,3.30
2022-08-31T06:26:58.308Z,2.80
2022-08-31T06:29:28.168Z,3.70
2022-08-31T06:31:55.836Z,3.20
2022-08-31T06:34:24.782Z,3.00
2022-08-31T06:36:52.360Z,3.00
2022-08-31T06:39:19.884Z,3.00
2022-08-31T06:41:48.979Z,3.10
2022-08-31T06:44:16.480Z,3.40
2022-08-31T06:46:47.079Z,3.20
2022-08-31T06:51:44.426Z,3.30
2022-08-31T06:54:30.753Z,3.70
2022-08-31T06:56:59.020Z,3.20
2022-08-31T06:59:29.952Z,2.90
2022-08-31T07:04:27.830Z,3.60
2022-08-31T07:06:55.503Z,3.40
2022-08-31T07:09:23.377Z,3.10
2022-08-31T07:11:52.739Z,3.20
2022-08-31T07:14:24.479Z,3.30
2022-08-31T07:16:56.655Z,3.80
2022-08-31T07:19:25.419Z,3.00
2022-08-31T07:21:58.951Z,3.50
2022-08-31T07:24:30.900Z,3.70
2022-08-31T07:27:04.564Z,3.40
2022-08-31T07:29:40.675Z,3.80
2022-08-31T07:32:12.479Z,3.60
2022-08-31T07:34:40.931Z,3.80
2022-08-31T07:37:26.909Z,3.60
2022-08-31T07:40:13.752Z,3.60
2022-08-31T07:42:44.585Z,3.10
2022-08-31T07:45:22.869Z,3.40
2022-08-31T07:47:53.397Z,3.60
2022-08-31T07:50:22.838Z,4.10
2022-08-31T07:52:54.682Z,4.00
2022-08-31T07:55:24.079Z,3.40
2022-08-31T07:57:54.883Z,3.90
2022-08-31T08:00:28.174Z,3.50
2022-08-31T08:02:56.339Z,3.20
2022-08-31T08:05:28.707Z,3.70
2022-08-31T08:08:08.456Z,3.50
2022-08-31T08:10:43.752Z,3.50
2022-08-31T08:13:17.144Z,3.60
2022-08-31T08:15:48.096Z,3.60
2022-08-31T08:18:15.652Z,3.80
2022-08-31T08:20:43.210Z,3.60
2022-08-31T08:23:14.362Z,4.10
2022-08-31T08:25:47.250Z,3.90
2022-08-31T08:28:40.103Z,4.10
2022-08-31T08:31:14.943Z,3.40
2022-08-31T08:33:44.123Z,3.80
2022-08-31T08:36:12.667Z,4.10
2022-08-31T08:38:44.008Z,3.80
2022-08-31T08:41:19.467Z,4.10
2022-08-31T08:43:52.830Z,3.50
2022-08-31T08:46:48.031Z,3.70
2022-08-31T08:49:41.055Z,4.50
2022-08-31T08:52:14.260Z,3.70
2022-08-31T08:54:46.083Z,3.70
2022-08-31T08:57:30.293Z,4.00
2022-08-31T09:00:02.906Z,4.70
2022-08-31T09:02:58.264Z,3.80
2022-08-31T09:05:53.363Z,4.20
2022-08-31T09:09:08.732Z,3.80
2022-08-31T09:11:55.149Z,3.90
2022-08-31T09:14:51.380Z,4.10
2022-08-31T09:17:52.190Z,4.30
2022-08-31T09:20:19.763Z,4.30
2022-08-31T09:22:51.912Z,4.00
2022-08-31T09:25:33.261Z,3.90
2022-08-31T09:28:07.621Z,4.10
2022-08-31T09:30:43.551Z,3.90
2022-08-31T09:33:23.468Z,3.80
2022-08-31T09:35:56.927Z,3.60
2022-08-31T09:38:40.318Z,4.20
2022-08-31T09:41:36.559Z,4.00
2022-08-31T09:44:24.176Z,3.70
2022-08-31T09:46:56.864Z,3.90
2022-08-31T09:49:31.689Z,4.40
2022-08-31T09:52:43.022Z,4.00
2022-08-31T09:55:17.612Z,3.90
2022-08-31T09:57:53.267Z,4.10
2022-08-31T10:00:44.281Z,3.70
2022-08-31T10:03:23.822Z,3.80
2022-08-31T10:05:54.710Z,3.70
2022-08-31T10:08:46.280Z,4.00
2022-08-31T10:11:24.951Z,3.50
2022-08-31T10:14:16.193Z,3.40
2022-08-31T10:16:54.040Z,4.00
2022-08-31T10:19:51.407Z,3.40
2022-08-31T10:22:58.015Z,3.50
2022-08-31T10:25:46.145Z,3.80
2022-08-31T10:28:32.212Z,3.40
2022-08-31T10:31:23.974Z,3.40
2022-08-31T10:34:23.176Z,3.60
2022-08-31T10:37:10.015Z,3.90
2022-08-31T10:39:44.913Z,4.30
2022-08-31T10:42:22.046Z,3.30
2022-08-31T10:44:58.291Z,3.80
2022-08-31T10:47:34.055Z,3.90
2022-08-31T10:50:04.669Z,3.80
2022-08-31T10:52:48.417Z,3.90
2022-08-31T10:55:37.292Z,4.40
2022-08-31T10:58:18.833Z,4.30
2022-08-31T11:01:18.076Z,4.10
2022-08-31T11:03:54.658Z,4.20
2022-08-31T11:06:54.707Z,3.30
2022-08-31T11:09:46.847Z,4.70
2022-08-31T11:12:21.695Z,4.90
2022-08-31T11:15:13.857Z,4.00
2022-08-31T11:17:56.173Z,4.70
2022-08-31T11:20:52.222Z,4.10
2022-08-31T11:23:53.463Z,4.10
2022-08-31T11:26:45.355Z,3.80
2022-08-31T11:29:28.918Z,3.90
2022-08-31T11:32:05.908Z,3.60
2022-08-31T11:34:47.340Z,3.70
2022-08-31T11:37:52.829Z,3.40
2022-08-31T11:40:45.157Z,3.70
2022-08-31T11:43:15.152Z,3.90
2022-08-31T11:45:43.498Z,3.80
2022-08-31T11:48:53.444Z,4.00
2022-08-31T11:51:44.980Z,3.40
2022-08-31T11:54:27.007Z,3.80
2022-08-31T11:56:57.137Z,3.70
2022-08-31T11:59:39.142Z,3.50
2022-08-31T12:02:25.443Z,3.80
2022-08-31T12:04:53.399Z,3.90
2022-08-31T12:07:36.614Z,3.60
2022-08-31T12:10:16.943Z,3.50
2022-08-31T12:13:31.017Z,4.00
2022-08-31T12:16:19.209Z,3.70
2022-08-31T12:19:02.239Z,3.70
2022-08-31T12:21:56.970Z,3.40
2022-08-31T12:24:49.669Z,4.10
2022-08-31T12:27:42.682Z,3.50
2022-08-31T12:30:25.362Z,3.90
2022-08-31T12:33:15.741Z,3.40
2022-08-31T12:35:46.301Z,4.10
2022-08-31T12:38:20.972Z,3.80
2022-08-31T12:40:52.291Z,3.60
2022-08-31T12:43:23.995Z,4.00
2022-08-31T12:46:34.236Z,3.70
2022-08-31T12:49:42.754Z,4.00
2022-08-31T12:52:31.633Z,4.00
2022-08-31T12:55:28.979Z,3.60
2022-08-31T12:58:38.974Z,4.10
2022-08-31T13:01:14.804Z,3.90
2022-08-31T13:03:54.148Z,3.50
2022-08-31T13:06:36.658Z,3.50
2022-08-31T13:09:05.980Z,3.70
2022-08-31T13:11:40.778Z,3.80
2022-08-31T13:14:20.973Z,3.60
2022-08-31T13:16:54.618Z,3.80
2022-08-31T13:19:29.688Z,3.80
2022-08-31T13:22:17.206Z,4.00
2022-08-31T13:24:51.317Z,3.70
2022-08-31T13:27:25.982Z,4.20
2022-08-31T13:29:59.358Z,3.80
2022-08-31T13:32:32.375Z,3.60
2022-08-31T13:35:04.418Z,3.90
2022-08-31T13:37:38.917Z,4.10
2022-08-31T13:40:12.769Z,3.80
2022-08-31T13:42:50.785Z,4.00
2022-08-31T13:45:43.158Z,3.30
2022-08-31T13:48:25.113Z,4.00
2022-08-31T13:51:02.247Z,4.20
2022-08-31T13:54:05.052Z,3.80
2022-08-31T13:56:50.857Z,4.10
2022-08-31T13:59:24.282Z,3.70
2022-08-31T14:02:03.174Z,3.80
2022-08-31T14:04:46.501Z,4.00
2022-08-31T14:07:23.904Z,3.80
2022-08-31T14:10:20.766Z,3.90
2022-08-31T14:12:59.221Z,3.70
2022-08-31T14:15:45.821Z,4.30
2022-08-31T14:18:25.450Z,3.80
2022-08-31T14:23:55.039Z,3.90
2022-08-31T14:26:26.652Z,4.30
2022-08-31T14:29:01.197Z,4.20
2022-08-31T14:31:58.826Z,3.90
2022-08-31T14:34:34.065Z,4.00
2022-08-31T14:37:19.740Z,4.00
2022-08-31T14:39:53.756Z,4.10
2022-08-31T14:42:36.359Z,3.90
2022-08-31T14:45:24.008Z,3.90
2022-08-31T14:47:52.558Z,4.30
2022-08-31T14:50:25.455Z,3.80
2022-08-31T14:52:55.421Z,3.80
2022-08-31T14:55:27.291Z,4.40
2022-08-31T14:58:05.187Z,3.90
2022-08-31T15:00:35.941Z,3.70
2022-08-31T15:03:03.419Z,4.10
2022-08-31T15:05:32.379Z,3.70
2022-08-31T15:07:59.875Z,3.70
2022-08-31T15:10:27.961Z,3.80
2022-08-31T15:12:55.850Z,4.10
2022-08-31T15:15:23.539Z,3.70
2022-08-31T15:17:52.064Z,3.60
2022-08-31T15:20:21.129Z,3.70
2022-08-31T15:22:49.726Z,4.10
2022-08-31T15:25:18.615Z,3.60
2022-08-31T15:27:46.709Z,3.90
2022-08-31T15:30:19.018Z,3.80
2022-08-31T15:32:48.884Z,3.70
2022-08-31T15:35:23.459Z,4.00
2022-08-31T15:37:55.320Z,4.00
2022-08-31T15:40:23.995Z,4.20
2022-08-31T15:42:53.994Z,4.20
2022-08-31T15:45:22.429Z,4.50
2022-08-31T15:48:08.334Z,4.10
2022-08-31T15:50:36.140Z,4.10
2022-08-31T15:53:09.905Z,3.80
2022-08-31T15:55:41.082Z,3.40
2022-08-31T15:58:09.710Z,3.80
2022-08-31T16:00:38.274Z,3.90
2022-08-31T16:03:06.326Z,3.40
2022-08-31T16:05:39.550Z,3.50
2022-08-31T16:08:11.126Z,4.00
2022-08-31T16:10:45.154Z,4.20
2022-08-31T16:13:15.898Z,3.80
2022-08-31T16:15:51.344Z,3.90
2022-08-31T16:18:22.501Z,3.50
2022-08-31T16:20:51.921Z,3.70
2022-08-31T16:23:21.400Z,3.30
2022-08-31T16:25:49.600Z,3.80
2022-08-31T16:28:21.515Z,3.60
2022-08-31T16:30:51.865Z,4.20
2022-08-31T16:33:20.671Z,3.60
2022-08-31T16:35:48.448Z,4.30
2022-08-31T16:38:16.175Z,4.00
2022-08-31T16:40:44.324Z,3.80
2022-08-31T16:43:12.184Z,3.70
2022-08-31T16:45:41.476Z,3.80
2022-08-31T16:48:29.567Z,4.10
2022-08-31T16:51:01.909Z,3.90
2022-08-31T16:53:30.760Z,4.00
2022-08-31T16:56:00.055Z,3.90
2022-08-31T16:58:50.508Z,4.00
2022-08-31T17:01:23.148Z,3.80
2022-08-31T17:03:57.557Z,4.30
2022-08-31T17:06:29.951Z,3.80
2022-08-31T17:09:01.801Z,4.20
2022-08-31T17:11:38.828Z,4.00
2022-08-31T17:14:08.802Z,3.90
2022-08-31T17:16:39.358Z,4.30
2022-08-31T17:21:49.811Z,4.40
2022-08-31T17:24:28.393Z,4.10
2022-08-31T17:26:59.670Z,3.90
2022-08-31T17:29:39.502Z,3.80
2022-08-31T17:32:16.200Z,4.30
2022-08-31T17:34:43.658Z,4.40
2022-08-31T17:37:15.166Z,3.90
2022-08-31T17:39:44.947Z,4.40
2022-08-31T17:42:15.614Z,3.80
2022-08-31T17:47:12.595Z,4.00
2022-08-31T17:49:44.450Z,4.10
2022-08-31T17:52:13.964Z,4.70
2022-08-31T17:54:43.180Z,4.90
2022-08-31T17:57:14.308Z,4.30
2022-08-31T17:59:46.597Z,4.40
2022-08-31T18:02:22.896Z,4.20
2022-08-31T18:04:52.398Z,5.10
2022-08-31T18:07:20.177Z,4.60
2022-08-31T18:09:47.833Z,4.90
2022-08-31T18:12:18.156Z,4.60
2022-08-31T18:14:45.691Z,4.60
2022-08-31T18:17:18.119Z,4.80
2022-08-31T18:19:45.591Z,4.40
2022-08-31T18:22:16.752Z,4.00
2022-08-31T18:24:44.437Z,4.50
2022-08-31T18:27:15.342Z,4.40
2022-08-31T18:29:44.434Z,4.10
2022-08-31T18:32:12.870Z,4.40
2022-08-31T18:34:47.244Z,4.30
2022-08-31T18:37:22.220Z,4.40
2022-08-31T18:40:09.104Z,3.80
2022-08-31T18:42:57.286Z,4.00
2022-08-31T18:45:28.180Z,4.00
2022-08-31T18:50:48.380Z,3.70
2022-08-31T18:53:27.829Z,4.30
2022-08-31T18:56:11.750Z,4.60
2022-08-31T18:58:40.044Z,4.20
2022-08-31T19:01:10.490Z,4.80
2022-08-31T19:03:39.403Z,4.80
2022-08-31T19:06:08.325Z,4.50
2022-08-31T19:08:35.765Z,4.40
2022-08-31T19:11:07.302Z,4.80
2022-08-31T19:13:35.299Z,4.60
2022-08-31T19:16:14.830Z,4.80
2022-08-31T19:18:44.257Z,4.50
2022-08-31T19:21:20.780Z,4.80
2022-08-31T19:23:49.219Z,5.20
2022-08-31T19:26:27.813Z,5.10
2022-08-31T19:28:56.623Z,5.00
2022-08-31T19:31:27.796Z,4.80
2022-08-31T19:33:57.051Z,4.90
2022-08-31T19:36:27.324Z,4.80
2022-08-31T19:38:56.273Z,5.30
2022-08-31T19:41:25.894Z,4.90
2022-08-31T19:44:07.261Z,5.10
2022-08-31T19:46:35.882Z,5.10
2022-08-31T19:49:03.602Z,5.40
2022-08-31T19:51:31.787Z,5.30
2022-08-31T19:54:03.443Z,5.80
2022-08-31T19:56:31.608Z,5.10
2022-08-31T19:58:59.843Z,4.90
2022-08-31T20:01:33.898Z,4.60
2022-08-31T20:04:07.543Z,4.70
2022-08-31T20:06:35.082Z,4.60
2022-08-31T20:09:05.484Z,4.30
2022-08-31T20:11:35.110Z,4.80
2022-08-31T20:14:05.113Z,4.70
2022-08-31T20:16:37.156Z,5.00
2022-08-31T20:19:05.856Z,4.90
2022-08-31T20:21:35.262Z,4.70
2022-08-31T20:24:11.545Z,4.60
2022-08-31T20:26:47.509Z,4.50
2022-08-31T20:29:21.496Z,4.60
2022-08-31T20:31:51.723Z,4.70
2022-08-31T20:36:59.857Z,5.70
2022-08-31T20:39:31.574Z,4.50
2022-08-31T20:42:00.239Z,5.50
2022-08-31T20:44:34.986Z,4.80
2022-08-31T20:47:29.608Z,4.90
2022-08-31T20:50:06.593Z,5.10
2022-08-31T20:52:35.442Z,5.00
2022-08-31T20:55:05.641Z,4.90
2022-08-31T20:57:35.953Z,4.30
2022-08-31T21:00:05.961Z,4.40
2022-08-31T21:02:34.593Z,4.60
2022-08-31T21:05:33.988Z,5.00
2022-08-31T21:07:57.319Z,4.40
2022-08-31T21:10:37.027Z,5.10
2022-08-31T21:13:08.649Z,5.40
2022-08-31T21:15:41.972Z,4.60
2022-08-31T21:18:10.257Z,5.00
2022-08-31T21:20:37.913Z,4.00
2022-08-31T21:23:10.576Z,4.50
2022-08-31T21:25:45.170Z,4.80
2022-08-31T21:28:17.395Z,4.80
2022-08-31T21:30:49.214Z,5.00
2022-08-31T21:33:16.954Z,4.60
2022-08-31T21:35:44.626Z,4.60
2022-08-31T21:38:13.172Z,4.60
2022-08-31T21:40:48.976Z,4.70
2022-08-31T21:43:16.839Z,4.50
2022-08-31T21:45:44.388Z,5.00
2022-08-31T21:48:11.843Z,4.80
2022-08-31T21:50:39.314Z,5.00
2022-08-31T21:53:06.762Z,5.40
2022-08-31T21:55:38.640Z,4.80
2022-08-31T21:58:06.175Z,4.50
2022-08-31T22:00:34.595Z,5.40
2022-08-31T22:03:02.330Z,5.00
2022-08-31T22:05:30.996Z,4.80
2022-08-31T22:07:58.444Z,4.50
2022-08-31T22:10:26.969Z,4.60
2022-08-31T22:12:54.409Z,4.80
2022-08-31T22:15:24.096Z,4.40
2022-08-31T22:18:22.893Z,4.70
2022-08-31T22:20:42.270Z,4.90
2022-08-31T22:23:10.395Z,4.20
2022-08-31T22:25:38.545Z,4.90
2022-08-31T22:28:07.440Z,5.10
2022-08-31T22:30:36.366Z,4.60
2022-08-31T22:33:04.535Z,4.30
2022-08-31T22:35:32.148Z,4.40
2022-08-31T22:37:59.606Z,4.50
2022-08-31T22:40:27.781Z,4.80
2022-08-31T22:42:55.623Z,4.30
2022-08-31T22:45:24.347Z,5.00
2022-08-31T22:47:51.828Z,4.60
2022-08-31T22:50:19.314Z,4.60
2022-08-31T22:52:46.787Z,4.80
2022-08-31T22:55:14.261Z,5.10
2022-08-31T22:57:41.783Z,4.30
2022-08-31T23:00:12.303Z,4.50
2022-08-31T23:02:45.245Z,4.30
2022-08-31T23:05:16.209Z,4.50
2022-08-31T23:10:18.513Z,4.20
2022-08-31T23:12:51.552Z,4.20
2022-08-31T23:15:21.674Z,4.20
2022-08-31T23:17:51.440Z,4.70
2022-08-31T23:20:24.472Z,4.60
2022-08-31T23:22:55.110Z,5.10
2022-08-31T23:25:25.020Z,4.60
2022-08-31T23:27:53.444Z,4.50
2022-08-31T23:30:22.563Z,4.90
2022-08-31T23:32:50.710Z,4.80
2022-08-31T23:35:18.610Z,4.60
2022-08-31T23:37:46.710Z,5.00
2022-08-31T23:40:16.125Z,4.40
2022-08-31T23:42:44.474Z,4.50
2022-08-31T23:45:12.822Z,4.30
2022-08-31T23:47:40.705Z,4.20
2022-08-31T23:50:10.187Z,4.50
2022-08-31T23:52:41.474Z,4.60
2022-08-31T23:55:11.063Z,4.60
2022-08-31T23:57:39.970Z,4.80
